KGMU/GMU METAR and TAF weather

Enter ICAO airport designator
Station Type Date Time Source
KGMU METAR 2021/04/17 00:53 UTC NOAA

KGMU 170053Z 22006KT 10SM CLR 17/01 A2985 RMK AO2 SLP105 T01720011


Station Type Date Time Source
KGMU Decoded METAR 2021/04/17 00:53 UTC NOAA

GREENVILLE DOWNTOWN AIRPORT , SC, United States (KGMU) 34-51N 82-21W 315M
Apr 16, 2021 - 08:53 PM EDT / 2021.04.17 0053 UTC
Wind: from the SW (220 degrees) at 7 MPH (6 KT):0
Visibility: 10 mile(s):0
Sky conditions: clear
Temperature: 63.0 F (17.2 C)
Dew Point: 34.0 F (1.1 C)
Relative Humidity: 33%
Pressure (altimeter): 29.85 in. Hg (1010 hPa)
ob: KGMU 170053Z 22006KT 10SM CLR 17/01 A2985 RMK AO2 SLP105 T01720011
cycle: 1

Station Type Date Time Source
KGMU TAF 2021/04/16 18:40 UTC NOAA

TAF KGMU 161738Z 1618/1718 25005KT P6SM SCT200
FM170200 27003KT P6SM SCT150 BKN200
FM171200 06004KT P6SM VCSH SCT045 OVC200

Example: see airport list